»·PEaware :: N182RB KOAR-KSNS

N182RB :: KOAR-KSNS

FLIGHT INFORMATION

Flight Status: Arrived
Operator: Privately registered:
United States
More flights under this callsign
Pilot: Mehr M. (15101)
Aircraft: CESSNA 206 STATIONAIR
(C206)
More flights by this aircraft type
Origin: KOAR Marina
United States
Destination: KSNS Salinas Mun
United States
More flights between these airports :: More routes between these airports
Route:
File this flight plan on PilotEdge
Remarks: NO SID -NO STAR ODP R11 ILS R31
Altitude:
(Current/Filed)
6,000ft
Speed:
(Current/Filed)
120kts
Departed: 31-Mar-19 08:59 PM
Arrived: 31-Mar-19 09:31 PM
Distance/Time
Traveled:
7nm/0:31
Distance/Time
To Go:
Arrived

Flight Plot

Page will automatically refresh every two minutes.

Flight plan parsing failed; only flown route is shown


Map Options




Map Legend


Flown Route
Filed Route
Departure Airport
Arrival Airport
Navaid (VOR, NDB)
Fix

Horizontal Profiles

Position Reports

Time Latitude Longitude Heading Altitude Ground
Speed
31-Mar-19 20:39 36.681486 -121.765869 213 141ft 0kts
31-Mar-19 20:40 36.681486 -121.765869 213 141ft 0kts
31-Mar-19 20:41 36.681486 -121.765869 213 141ft 0kts
31-Mar-19 20:42 36.681486 -121.765869 213 141ft 0kts
31-Mar-19 20:43 36.681486 -121.765869 213 141ft 0kts
31-Mar-19 20:44 36.681486 -121.765869 213 141ft 0kts
31-Mar-19 20:45 36.681486 -121.765869 213 141ft 0kts
31-Mar-19 20:46 36.681486 -121.765869 213 141ft 0kts
31-Mar-19 20:47 36.681486 -121.765869 213 141ft 0kts
31-Mar-19 20:48 36.681486 -121.765869 213 141ft 0kts
31-Mar-19 20:49 36.681486 -121.765869 213 141ft 0kts
31-Mar-19 20:50 36.682113 -121.766141 305 141ft 5kts
31-Mar-19 20:51 36.682917 -121.767514 341 141ft 7kts
31-Mar-19 20:52 36.683262 -121.767504 40 141ft 0kts
31-Mar-19 20:53 36.683263 -121.767503 40 141ft 0kts
31-Mar-19 20:54 36.683515 -121.767316 26 141ft 0kts
31-Mar-19 20:55 36.683515 -121.767316 26 141ft 0kts
31-Mar-19 20:56 36.683515 -121.767316 26 141ft 0kts
31-Mar-19 20:57 36.683918 -121.766561 77 141ft 0kts
31-Mar-19 20:58 36.675126 -121.746270 115 964ft 105kts
31-Mar-19 20:59 36.667898 -121.716049 96 1837ft 99kts
31-Mar-19 21:00 36.663294 -121.685500 89 2550ft 96kts
31-Mar-19 21:01 36.666866 -121.654457 97 3261ft 87kts
31-Mar-19 21:02 36.664695 -121.622488 92 3893ft 93kts
31-Mar-19 21:03 36.663695 -121.589907 64 4552ft 97kts
31-Mar-19 21:04 36.684401 -121.591388 291 5205ft 96kts
31-Mar-19 21:05 36.689497 -121.623620 283 5865ft 96kts
31-Mar-19 21:06 36.683133 -121.649107 184 6057ft 98kts
31-Mar-19 21:07 36.668801 -121.626810 83 6050ft 110kts
31-Mar-19 21:08 36.673232 -121.588820 109 6025ft 114kts
31-Mar-19 21:09 36.644254 -121.573249 168 5741ft 123kts
31-Mar-19 21:10 36.611803 -121.561960 161 5505ft 118kts
31-Mar-19 21:11 36.583668 -121.542927 154 5386ft 112kts
31-Mar-19 21:12 36.556697 -121.523955 153 5430ft 109kts
31-Mar-19 21:13 36.530496 -121.504669 141 5451ft 110kts
31-Mar-19 21:14 36.505707 -121.482613 143 5504ft 109kts
31-Mar-19 21:15 36.480399 -121.461065 137 5523ft 111kts
31-Mar-19 21:16 36.472614 -121.424521 97 5525ft 112kts
31-Mar-19 21:17 36.469716 -121.385658 110 5472ft 116kts
31-Mar-19 21:18 36.449917 -121.392499 274 5414ft 112kts
31-Mar-19 21:19 36.452204 -121.429913 275 5521ft 110kts
31-Mar-19 21:20 36.472932 -121.455955 322 5415ft 114kts
31-Mar-19 21:21 36.496706 -121.481742 330 5101ft 112kts
31-Mar-19 21:22 36.514917 -121.495215 323 4812ft 111kts
31-Mar-19 21:23 36.536870 -121.514569 335 4556ft 87kts
31-Mar-19 21:24 36.558787 -121.528648 327 3863ft 87kts
31-Mar-19 21:25 36.580589 -121.543644 330 2979ft 93kts
31-Mar-19 21:26 36.603098 -121.559178 327 1642ft 105kts
31-Mar-19 21:27 36.623491 -121.574901 331 813ft 81kts
31-Mar-19 21:28 36.642117 -121.589992 328 443ft 82kts
31-Mar-19 21:29 36.660153 -121.603464 327 96ft 63kts
31-Mar-19 21:30 36.665432 -121.608651 270 88ft 0kts

Navigation Log

Ident Type
Flight plan parsing failed, navigation log unavailable